Time;durP1;ratioP1;P1;durP2;ratioP2;P2;SDS_P1;SDS_P2;PMS_P1;PMS_P2;Temp;Humidity;BMP_temperature;BMP_pressure;BME280_temperature;BME280_humidity;BME280_pressure;Samples;Min_cycle;Max_cycle;Signal;HPM_P1;HPM_P2
2021/05/31 04:00:50;;;;;;;17.23;12.32;;;10.20;99.90;;;;;;5748820;23;20241;-68
2021/05/31 04:03:16;;;;;;;17.25;12.45;;;10.20;99.90;;;;;;4936139;29;20248;-68
2021/05/31 04:05:51;;;;;;;16.00;11.88;;;10.20;99.90;;;;;;4937229;28;20209;-69
2021/05/31 04:13:46;;;;;;;17.40;11.93;;;10.30;99.90;;;;;;4937805;29;20213;-69
2021/05/31 04:16:13;;;;;;;17.63;11.98;;;10.30;99.90;;;;;;4938309;29;20210;-68
2021/05/31 04:18:40;;;;;;;16.25;12.48;;;10.40;99.90;;;;;;4937781;29;20206;-69
2021/05/31 04:21:06;;;;;;;12.88;11.60;;;10.50;99.90;;;;;;4937105;29;20253;-69
2021/05/31 04:23:32;;;;;;;10.98;9.90;;;10.90;99.90;;;;;;4936626;28;20244;-69
2021/05/31 04:25:58;;;;;;;9.48;8.57;;;11.80;99.90;;;;;;4936894;29;20212;-69
2021/05/31 04:28:24;;;;;;;10.20;9.33;;;12.70;99.90;;;;;;4936644;29;20206;-69
2021/05/31 04:30:50;;;;;;;7.97;7.27;;;13.60;99.90;;;;;;4936631;29;20493;-69
2021/05/31 04:33:18;;;;;;;8.27;7.57;;;14.40;99.90;;;;;;4935871;29;20496;-69
2021/05/31 04:35:44;;;;;;;8.07;7.40;;;15.10;99.90;;;;;;4936572;29;20476;-68
2021/05/31 04:38:10;;;;;;;8.23;7.57;;;15.80;99.90;;;;;;4936718;29;20473;-68
2021/05/31 04:40:36;;;;;;;7.47;6.97;;;16.30;99.90;;;;;;4936684;29;20497;-67
2021/05/31 04:43:02;;;;;;;7.80;7.20;;;16.80;99.90;;;;;;4936682;29;20500;-67
2021/05/31 04:45:29;;;;;;;7.70;7.20;;;17.30;99.90;;;;;;4936004;28;20481;-66
2021/05/31 04:47:55;;;;;;;8.30;7.80;;;17.80;99.90;;;;;;4936710;29;20958;-66
2021/05/31 04:50:22;;;;;;;8.40;7.67;;;18.00;99.90;;;;;;4935934;29;20594;-67
2021/05/31 04:52:48;;;;;;;8.00;7.60;;;18.40;99.90;;;;;;4936827;29;20500;-66
2021/05/31 04:55:16;;;;;;;7.87;7.40;;;18.80;99.90;;;;;;4937158;29;20899;-66
2021/05/31 04:57:43;;;;;;;7.47;6.97;;;19.00;99.90;;;;;;4936642;29;20501;-66
2021/05/31 05:00:10;;;;;;;8.10;7.50;;;19.30;99.90;;;;;;4935898;29;20875;-66
2021/05/31 05:02:37;;;;;;;8.73;8.30;;;19.60;99.90;;;;;;4935743;29;20836;-66
2021/05/31 05:05:04;;;;;;;8.33;7.83;;;19.90;99.90;;;;;;4935068;29;20472;-66
2021/05/31 05:07:31;;;;;;;9.40;8.70;;;19.80;99.90;;;;;;4936196;29;20469;-69
2021/05/31 05:09:57;;;;;;;7.57;7.10;;;20.00;99.90;;;;;;4936164;28;20549;-68
2021/05/31 05:12:24;;;;;;;6.23;5.93;;;20.10;99.90;;;;;;4935980;29;20543;-69
2021/05/31 05:14:50;;;;;;;6.30;5.90;;;20.30;99.90;;;;;;4935582;29;20478;-69
2021/05/31 05:17:16;;;;;;;6.00;5.60;;;20.30;99.90;;;;;;4935392;29;20502;-68
2021/05/31 05:19:43;;;;;;;6.20;5.90;;;20.50;99.90;;;;;;4934398;28;20488;-65
2021/05/31 05:22:09;;;;;;;6.77;6.37;;;20.70;99.40;;;;;;4934878;29;20983;-67
2021/05/31 05:24:36;;;;;;;6.10;5.70;;;20.70;99.80;;;;;;4935422;29;20470;-66
2021/05/31 05:27:05;;;;;;;6.30;5.87;;;20.70;98.00;;;;;;4935551;29;20487;-66
2021/05/31 05:29:31;;;;;;;5.47;5.17;;;20.90;97.20;;;;;;4934992;29;20478;-67
2021/05/31 05:31:59;;;;;;;6.40;6.10;;;20.90;95.80;;;;;;4934935;28;20541;-66
2021/05/31 05:34:25;;;;;;;5.00;4.70;;;20.50;95.90;;;;;;4934788;29;20601;-66
2021/05/31 05:36:54;;;;;;;4.97;4.67;;;20.40;95.50;;;;;;4935027;29;20540;-66
2021/05/31 05:42:23;;;;;;;4.30;4.07;;;20.80;93.70;;;;;;4934846;29;21061;-66
2021/05/31 05:47:46;;;;;;;2.83;2.83;;;20.70;90.10;;;;;;4935387;29;20511;-66
2021/05/31 05:50:15;;;;;;;3.53;3.33;;;20.60;90.00;;;;;;4933981;29;20801;-66
2021/05/31 05:52:41;;;;;;;2.43;2.43;;;20.70;88.60;;;;;;4934937;29;20457;-67
2021/05/31 05:55:09;;;;;;;2.73;2.63;;;20.80;85.80;;;;;;4934873;29;20517;-66
2021/05/31 05:57:37;;;;;;;2.43;2.43;;;20.80;86.90;;;;;;4935176;29;20456;-67
2021/05/31 06:00:07;;;;;;;3.47;3.13;;;20.90;82.80;;;;;;4934924;29;20466;-65
2021/05/31 06:02:33;;;;;;;1.93;1.83;;;20.70;79.40;;;;;;4934870;29;20862;-66
2021/05/31 06:04:59;;;;;;;2.53;2.43;;;20.60;76.60;;;;;;4933929;29;20472;-66
2021/05/31 06:07:26;;;;;;;2.00;2.00;;;20.30;79.10;;;;;;4934973;29;20473;-66
2021/05/31 06:09:52;;;;;;;2.30;2.30;;;20.30;78.60;;;;;;4935033;29;20475;-66
2021/05/31 06:12:18;;;;;;;3.00;2.83;;;20.50;79.80;;;;;;4935145;29;20508;-67
2021/05/31 06:14:46;;;;;;;2.83;2.63;;;20.90;79.40;;;;;;4935050;29;20465;-66
2021/05/31 06:17:12;;;;;;;3.20;3.00;;;21.00;79.80;;;;;;4935060;29;20476;-66
2021/05/31 06:19:38;;;;;;;2.67;2.57;;;21.50;79.30;;;;;;4934050;29;20839;-67
2021/05/31 06:22:05;;;;;;;2.60;2.50;;;22.20;78.00;;;;;;4934549;29;20568;-67
2021/05/31 06:24:31;;;;;;;2.47;2.37;;;22.80;76.90;;;;;;4934964;29;20475;-67
2021/05/31 06:26:57;;;;;;;3.30;3.20;;;23.20;74.90;;;;;;4934996;29;20491;-67
2021/05/31 06:29:24;;;;;;;2.67;2.57;;;23.50;70.30;;;;;;4934987;29;20483;-66
2021/05/31 06:31:51;;;;;;;3.13;3.10;;;23.60;68.40;;;;;;4934613;29;21110;-66
2021/05/31 06:34:17;;;;;;;3.83;3.63;;;23.90;64.50;;;;;;4934174;29;20472;-67
2021/05/31 06:36:45;;;;;;;3.63;3.53;;;23.90;63.70;;;;;;4934270;29;21132;-66
2021/05/31 06:39:11;;;;;;;4.07;3.97;;;24.10;61.40;;;;;;4934654;29;20514;-66
2021/05/31 06:41:38;;;;;;;3.53;3.47;;;24.20;59.40;;;;;;4934693;29;20594;-68
2021/05/31 06:44:04;;;;;;;3.33;3.30;;;24.00;59.70;;;;;;4934545;29;20487;-66
2021/05/31 06:46:30;;;;;;;3.27;3.17;;;23.70;60.80;;;;;;4934718;29;20469;-66
2021/05/31 06:48:58;;;;;;;3.37;3.27;;;23.90;64.00;;;;;;4934362;29;20465;-67
2021/05/31 06:51:24;;;;;;;2.93;2.93;;;23.90;65.10;;;;;;4934110;29;20483;-66
2021/05/31 06:53:51;;;;;;;2.63;2.63;;;23.80;64.70;;;;;;4934797;29;20466;-65
2021/05/31 06:56:19;;;;;;;3.03;3.00;;;24.30;66.10;;;;;;4934655;29;20901;-69
2021/05/31 06:58:45;;;;;;;2.63;2.53;;;24.60;63.50;;;;;;4934740;29;20556;-67
2021/05/31 07:01:11;;;;;;;2.40;2.40;;;24.40;61.70;;;;;;4934399;29;20498;-67
2021/05/31 07:03:38;;;;;;;2.33;2.23;;;24.50;59.90;;;;;;4933732;29;20495;-69
2021/05/31 07:06:06;;;;;;;2.50;2.30;;;24.70;60.20;;;;;;4934122;29;20475;-68
2021/05/31 07:08:32;;;;;;;2.87;2.73;;;24.50;61.00;;;;;;4934589;29;20472;-68
2021/05/31 07:11:01;;;;;;;2.40;2.30;;;25.00;60.60;;;;;;4937579;29;20549;-68
2021/05/31 07:13:29;;;;;;;2.57;2.30;;;24.80;59.80;;;;;;4938058;29;20547;-68
2021/05/31 07:15:56;;;;;;;2.37;2.37;;;24.30;59.20;;;;;;4938330;29;20558;-68
2021/05/31 07:18:22;;;;;;;3.37;3.00;;;24.40;59.50;;;;;;4937595;29;20601;-68
2021/05/31 07:20:49;;;;;;;2.33;2.23;;;24.60;58.70;;;;;;4937957;29;20489;-70
2021/05/31 07:23:17;;;;;;;2.43;2.43;;;23.50;60.70;;;;;;4937474;28;20563;-69
2021/05/31 07:25:43;;;;;;;2.07;2.07;;;23.90;60.40;;;;;;4937754;29;20811;-68
2021/05/31 07:28:09;;;;;;;2.10;2.03;;;24.30;60.10;;;;;;4937683;29;20941;-67
2021/05/31 07:30:35;;;;;;;2.40;2.30;;;24.70;58.60;;;;;;4937529;29;20498;-68
2021/05/31 07:33:02;;;;;;;2.17;2.17;;;25.30;57.80;;;;;;4937459;29;20537;-68
2021/05/31 07:35:28;;;;;;;2.30;2.23;;;25.60;57.20;;;;;;4936901;29;20875;-66
2021/05/31 07:37:55;;;;;;;2.17;2.07;;;25.50;55.00;;;;;;4937569;29;20559;-66
2021/05/31 07:40:23;;;;;;;2.23;2.23;;;25.50;54.80;;;;;;4937102;29;20468;-66
2021/05/31 07:42:49;;;;;;;2.30;1.87;;;25.30;54.40;;;;;;4937111;29;21016;-66
2021/05/31 07:45:17;;;;;;;1.80;1.80;;;25.40;53.80;;;;;;4937270;29;20475;-67
2021/05/31 07:47:44;;;;;;;1.50;1.50;;;25.40;53.70;;;;;;4938250;29;20566;-66
2021/05/31 07:50:11;;;;;;;1.80;1.80;;;25.30;49.30;;;;;;4936883;29;20546;-66
2021/05/31 07:52:37;;;;;;;1.63;1.63;;;25.10;52.90;;;;;;4937446;29;20471;-66
2021/05/31 07:55:07;;;;;;;1.73;1.73;;;25.00;50.10;;;;;;4936958;29;20947;-67
2021/05/31 07:57:35;;;;;;;1.40;1.40;;;24.80;48.20;;;;;;4937234;29;20473;-67
2021/05/31 08:00:02;;;;;;;1.63;1.53;;;24.90;46.50;;;;;;4936856;28;20485;-67
2021/05/31 08:02:29;;;;;;;1.10;1.10;;;24.70;45.80;;;;;;4936883;29;20507;-66
2021/05/31 08:04:55;;;;;;;1.20;1.20;;;24.60;45.40;;;;;;4936319;29;20476;-67
2021/05/31 08:07:21;;;;;;;1.63;1.63;;;24.50;45.50;;;;;;4937170;29;20479;-66
2021/05/31 08:09:48;;;;;;;1.40;1.40;;;24.50;45.80;;;;;;4937029;29;20525;-66
2021/05/31 08:12:14;;;;;;;1.20;1.20;;;24.40;46.40;;;;;;4936568;29;20500;-66
2021/05/31 08:14:42;;;;;;;1.50;1.50;;;24.50;45.90;;;;;;4937416;29;20480;-65
2021/05/31 08:17:09;;;;;;;1.30;1.20;;;24.40;46.80;;;;;;4936769;29;20980;-66
2021/05/31 08:19:35;;;;;;;1.30;1.30;;;24.10;45.50;;;;;;4935998;29;20524;-66
2021/05/31 08:22:03;;;;;;;1.43;1.30;;;24.30;46.40;;;;;;4936627;29;20485;-66
2021/05/31 08:24:29;;;;;;;1.53;1.53;;;24.40;45.30;;;;;;4936589;28;20488;-67
2021/05/31 08:26:56;;;;;;;1.40;1.40;;;24.40;44.90;;;;;;4936711;29;20906;-66
2021/05/31 08:29:22;;;;;;;1.50;1.50;;;24.30;44.40;;;;;;4936752;29;20466;-66
2021/05/31 08:31:50;;;;;;;1.17;1.17;;;24.10;45.20;;;;;;4936470;29;20493;-66
2021/05/31 08:34:16;;;;;;;1.33;1.33;;;24.10;44.50;;;;;;4936289;29;20771;-66
2021/05/31 08:36:44;;;;;;;1.20;1.20;;;23.90;43.70;;;;;;4936006;29;20475;-66
2021/05/31 08:39:10;;;;;;;1.20;1.20;;;23.90;43.40;;;;;;4936288;29;20476;-66
2021/05/31 08:41:38;;;;;;;1.47;1.47;;;23.90;45.20;;;;;;4936089;29;20591;-66
2021/05/31 08:44:05;;;;;;;1.40;1.40;;;23.50;46.90;;;;;;4935802;29;21079;-65
2021/05/31 08:46:34;;;;;;;1.30;1.30;;;23.00;48.20;;;;;;4935997;29;20944;-65
2021/05/31 08:49:02;;;;;;;1.30;1.30;;;22.80;48.90;;;;;;4935620;29;20473;-65
2021/05/31 08:51:28;;;;;;;1.33;1.33;;;22.60;50.10;;;;;;4935619;28;20499;-66
2021/05/31 08:53:56;;;;;;;2.67;1.90;;;22.50;50.60;;;;;;4936257;29;20767;-66
2021/05/31 08:56:22;;;;;;;1.50;1.50;;;22.40;49.60;;;;;;4935928;29;20471;-66
2021/05/31 08:58:50;;;;;;;1.77;1.70;;;22.50;50.10;;;;;;4936373;29;20501;-70
2021/05/31 09:01:18;;;;;;;1.33;1.33;;;22.50;49.50;;;;;;4935963;29;20541;-69
2021/05/31 09:03:45;;;;;;;1.63;1.50;;;22.00;49.70;;;;;;4935525;29;20500;-70
2021/05/31 09:06:15;;;;;;;1.67;1.57;;;21.60;50.30;;;;;;4935684;29;20553;-69
2021/05/31 09:08:51;;;;;;;1.57;1.57;;;21.30;51.00;;;;;;4936182;29;20465;-67
2021/05/31 09:11:20;;;;;;;1.63;1.63;;;21.10;52.40;;;;;;4935976;29;20876;-68
2021/05/31 09:13:46;;;;;;;1.63;1.60;;;21.00;53.60;;;;;;4935975;29;20462;-69
2021/05/31 09:16:14;;;;;;;1.43;1.43;;;20.70;53.80;;;;;;4935985;29;20465;-68
2021/05/31 09:18:47;;;;;;;2.20;2.20;;;20.30;54.80;;;;;;4935154;29;20460;-68
2021/05/31 09:21:17;;;;;;;2.20;1.90;;;20.00;56.00;;;;;;4935089;29;20492;-69
2021/05/31 09:23:44;;;;;;;2.53;2.40;;;20.10;56.90;;;;;;4935574;29;20493;-70
2021/05/31 09:26:10;;;;;;;2.30;2.20;;;20.00;57.90;;;;;;4935602;29;20824;-72
2021/05/31 09:28:36;;;;;;;1.90;1.90;;;20.10;57.90;;;;;;4935574;29;20469;-70
2021/05/31 09:31:14;;;;;;;2.27;2.17;;;20.10;57.60;;;;;;4935438;29;20485;-70
2021/05/31 09:33:41;;;;;;;2.43;2.23;;;20.10;58.90;;;;;;4934373;29;20473;-71
2021/05/31 09:36:08;;;;;;;1.87;1.87;;;20.10;58.50;;;;;;4934911;28;20580;-69
2021/05/31 09:38:47;;;;;;;1.93;1.83;;;20.20;60.00;;;;;;4935586;29;20469;-70
2021/05/31 09:41:22;;;;;;;2.20;2.10;;;20.10;59.60;;;;;;4935475;29;20485;-70
2021/05/31 09:43:55;;;;;;;2.20;2.10;;;20.00;60.20;;;;;;4934952;29;20609;-71
2021/05/31 09:46:21;;;;;;;5.90;2.30;;;20.10;60.40;;;;;;4935148;28;20465;-70
2021/05/31 09:48:47;;;;;;;2.23;2.17;;;20.00;60.90;;;;;;4934708;29;20470;-72
2021/05/31 09:51:14;;;;;;;2.00;2.00;;;20.10;62.70;;;;;;4934733;29;20808;-67
2021/05/31 09:53:42;;;;;;;2.60;2.40;;;20.30;62.70;;;;;;4934916;29;20529;-71
2021/05/31 09:56:15;;;;;;;2.73;2.63;;;20.50;63.80;;;;;;4935324;29;20470;-71
2021/05/31 09:58:51;;;;;;;2.80;2.70;;;20.40;63.10;;;;;;4935193;29;20522;-71
2021/05/31 10:01:32;;;;;;;3.00;2.70;;;20.30;65.50;;;;;;4934968;28;20497;-71
2021/05/31 10:04:09;;;;;;;2.80;2.60;;;20.40;65.40;;;;;;4934443;29;20493;-71
2021/05/31 10:06:47;;;;;;;2.40;2.30;;;20.40;67.50;;;;;;4934474;29;20465;-66
2021/05/31 10:09:15;;;;;;;3.17;3.00;;;20.30;67.70;;;;;;4934871;29;20477;-66
2021/05/31 10:11:42;;;;;;;3.13;3.10;;;20.30;69.20;;;;;;4934931;29;20486;-68
2021/05/31 10:14:09;;;;;;;3.23;3.03;;;20.30;69.60;;;;;;4934895;29;20468;-71
2021/05/31 10:16:35;;;;;;;3.17;3.07;;;20.30;70.00;;;;;;4934872;29;20525;-69
2021/05/31 10:19:02;;;;;;;3.00;2.80;;;20.40;71.70;;;;;;4934433;29;20978;-69
2021/05/31 10:21:29;;;;;;;3.00;2.87;;;20.40;70.50;;;;;;4934096;29;20600;-68
2021/05/31 10:23:55;;;;;;;2.87;2.77;;;20.20;71.00;;;;;;4934330;28;20859;-69
2021/05/31 10:26:23;;;;;;;3.20;3.00;;;20.10;70.90;;;;;;4934930;29;20472;-69
2021/05/31 10:28:51;;;;;;;2.73;2.63;;;20.10;73.40;;;;;;4934841;29;20473;-67
2021/05/31 10:31:17;;;;;;;2.93;2.73;;;20.10;73.70;;;;;;4934506;29;20489;-67
2021/05/31 10:33:43;;;;;;;2.97;2.87;;;20.40;73.30;;;;;;4934097;28;20822;-67
2021/05/31 10:36:16;;;;;;;3.53;3.33;;;20.50;72.70;;;;;;4934095;29;20470;-67
2021/05/31 10:38:46;;;;;;;3.30;3.10;;;20.50;71.60;;;;;;4934888;29;20560;-67
2021/05/31 10:41:14;;;;;;;2.93;2.83;;;20.40;72.20;;;;;;4934619;29;20482;-67
2021/05/31 10:43:47;;;;;;;3.27;3.10;;;20.60;72.40;;;;;;4934351;29;20490;-67
2021/05/31 10:46:16;;;;;;;3.63;3.33;;;20.60;72.70;;;;;;4938206;29;20639;-70
2021/05/31 10:48:45;;;;;;;2.63;2.53;;;20.60;72.80;;;;;;4937885;29;20556;-70
2021/05/31 10:51:16;;;;;;;3.13;3.03;;;20.60;72.10;;;;;;4937800;29;20561;-69
2021/05/31 10:53:43;;;;;;;3.63;3.53;;;20.50;72.00;;;;;;4938166;29;20467;-70
2021/05/31 10:56:10;;;;;;;2.60;2.50;;;20.40;71.80;;;;;;4938779;29;20544;-70
2021/05/31 10:58:38;;;;;;;3.17;3.07;;;20.40;72.60;;;;;;4938240;29;20489;-71
2021/05/31 11:01:08;;;;;;;3.07;2.90;;;20.40;73.10;;;;;;4938266;29;20493;-70
2021/05/31 11:03:45;;;;;;;2.80;2.60;;;20.40;74.40;;;;;;4938774;29;20498;-69
2021/05/31 11:06:12;;;;;;;3.90;3.30;;;20.60;73.50;;;;;;4937870;28;20985;-69
2021/05/31 11:08:50;;;;;;;2.53;2.43;;;20.60;72.90;;;;;;4938040;29;20461;-69
2021/05/31 11:11:24;;;;;;;2.97;2.87;;;20.90;73.10;;;;;;4938171;29;20856;-69
2021/05/31 11:13:52;;;;;;;3.17;3.07;;;21.00;72.10;;;;;;4937861;29;20457;-69
2021/05/31 11:16:20;;;;;;;2.77;2.67;;;20.90;71.70;;;;;;4938140;29;20816;-69
2021/05/31 11:18:48;;;;;;;3.00;2.90;;;21.00;72.60;;;;;;4937463;29;20630;-70
2021/05/31 11:21:26;;;;;;;2.53;2.33;;;21.20;71.30;;;;;;4937566;29;20488;-67
2021/05/31 11:23:58;;;;;;;3.53;2.80;;;21.20;71.00;;;;;;4937845;29;20488;-68
2021/05/31 11:26:27;;;;;;;2.80;2.70;;;21.20;71.20;;;;;;4937818;29;20958;-67
2021/05/31 11:28:55;;;;;;;2.90;2.80;;;21.00;71.60;;;;;;4937608;29;20597;-67
2021/05/31 11:31:23;;;;;;;3.00;2.90;;;21.00;71.70;;;;;;4937509;29;20576;-67
2021/05/31 11:33:53;;;;;;;3.10;3.00;;;21.10;72.40;;;;;;4937109;29;20461;-67
2021/05/31 11:36:28;;;;;;;2.93;2.90;;;21.20;71.00;;;;;;4937075;29;20937;-68
2021/05/31 11:38:54;;;;;;;2.93;2.83;;;21.30;70.50;;;;;;4937443;28;20460;-68
2021/05/31 11:41:29;;;;;;;2.77;2.57;;;21.30;69.70;;;;;;4937340;29;20486;-67
2021/05/31 11:43:55;;;;;;;3.20;3.00;;;21.40;70.40;;;;;;4937474;29;20858;-66
2021/05/31 11:46:23;;;;;;;3.00;2.90;;;21.50;71.20;;;;;;4938161;29;20881;-66
2021/05/31 11:48:49;;;;;;;3.23;3.13;;;21.50;71.70;;;;;;4937799;29;20472;-66
2021/05/31 11:51:16;;;;;;;3.83;3.53;;;21.60;70.80;;;;;;4937052;29;20500;-66
2021/05/31 11:53:45;;;;;;;2.80;2.70;;;21.60;71.00;;;;;;4938195;29;20461;-66
2021/05/31 11:56:11;;;;;;;3.37;3.27;;;21.80;71.30;;;;;;4937556;29;20466;-66
2021/05/31 11:58:40;;;;;;;2.53;2.43;;;21.90;69.10;;;;;;4937637;29;20466;-66
2021/05/31 12:01:09;;;;;;;2.90;2.77;;;21.90;69.40;;;;;;4938174;29;20533;-67
2021/05/31 12:03:38;;;;;;;3.23;2.57;;;21.90;68.50;;;;;;4936132;29;20490;-68
2021/05/31 12:06:10;;;;;;;2.63;2.40;;;22.10;66.80;;;;;;4936234;29;20548;-67
2021/05/31 12:08:37;;;;;;;2.40;2.40;;;21.90;68.60;;;;;;4936808;29;20470;-67
2021/05/31 12:11:03;;;;;;;3.07;2.97;;;21.80;68.20;;;;;;4936460;29;20485;-68
2021/05/31 12:13:31;;;;;;;3.10;2.90;;;21.70;69.80;;;;;;4936039;29;20474;-67
2021/05/31 12:15:57;;;;;;;3.27;3.17;;;21.70;69.40;;;;;;4936472;29;20824;-67
2021/05/31 12:18:26;;;;;;;2.80;2.70;;;21.90;69.00;;;;;;4935595;29;20874;-68
2021/05/31 12:20:57;;;;;;;2.80;2.80;;;21.90;68.20;;;;;;4935774;29;20867;-68
2021/05/31 12:23:24;;;;;;;2.97;2.87;;;22.10;68.50;;;;;;4935949;28;20528;-68
2021/05/31 12:25:52;;;;;;;2.93;2.83;;;22.20;68.20;;;;;;4936247;29;20462;-67
2021/05/31 12:28:19;;;;;;;3.83;2.93;;;22.10;68.00;;;;;;4935956;29;20836;-67
2021/05/31 12:30:46;;;;;;;2.50;2.43;;;22.00;68.60;;;;;;4935904;29;20486;-68
2021/05/31 12:33:13;;;;;;;3.47;3.27;;;22.10;67.50;;;;;;4935873;29;20604;-69
2021/05/31 12:35:42;;;;;;;3.80;3.60;;;22.00;67.70;;;;;;4935772;29;20835;-71
2021/05/31 12:38:10;;;;;;;3.20;3.10;;;22.00;68.70;;;;;;4936235;29;20465;-69
2021/05/31 12:40:38;;;;;;;3.17;3.07;;;22.00;68.40;;;;;;4936088;29;20493;-71
2021/05/31 12:43:05;;;;;;;3.77;3.60;;;22.10;69.00;;;;;;4935913;29;21038;-69
2021/05/31 12:45:31;;;;;;;3.60;3.40;;;22.30;66.90;;;;;;4936087;29;20914;-67
2021/05/31 12:47:57;;;;;;;3.23;3.13;;;22.20;68.10;;;;;;4935803;28;20485;-67
2021/05/31 12:50:25;;;;;;;2.83;2.80;;;22.20;66.80;;;;;;4935695;29;20517;-68
2021/05/31 12:52:51;;;;;;;2.93;2.83;;;22.00;66.90;;;;;;4936656;29;20468;-67
2021/05/31 12:55:24;;;;;;;3.43;3.27;;;21.90;67.70;;;;;;4936419;29;20477;-68
2021/05/31 12:57:53;;;;;;;3.60;3.40;;;22.00;68.10;;;;;;4935911;29;20544;-72
2021/05/31 13:00:20;;;;;;;3.60;3.50;;;22.00;67.80;;;;;;4935435;29;21259;-72
2021/05/31 13:02:49;;;;;;;4.20;3.90;;;22.20;69.10;;;;;;4936022;29;20493;-71
2021/05/31 13:05:16;;;;;;;3.20;3.00;;;22.30;68.90;;;;;;4935281;29;20473;-71
2021/05/31 13:07:48;;;;;;;3.00;2.90;;;22.20;69.40;;;;;;4935370;29;20472;-71
2021/05/31 13:10:16;;;;;;;3.23;3.07;;;22.10;69.30;;;;;;4935857;28;20580;-71
2021/05/31 13:12:52;;;;;;;3.43;3.33;;;22.20;69.50;;;;;;4936547;29;20474;-71
2021/05/31 13:15:19;;;;;;;2.63;2.63;;;22.30;67.70;;;;;;4935218;29;20469;-68
2021/05/31 13:17:46;;;;;;;3.50;3.40;;;22.30;67.90;;;;;;4935437;29;20492;-68
2021/05/31 13:20:15;;;;;;;3.20;3.10;;;22.60;69.00;;;;;;4934602;29;20917;-69
2021/05/31 13:22:41;;;;;;;3.70;3.40;;;22.60;67.60;;;;;;4935220;28;20569;-68
2021/05/31 13:25:16;;;;;;;3.40;3.20;;;22.80;68.80;;;;;;4935691;29;20461;-68
2021/05/31 13:27:42;;;;;;;3.50;3.40;;;22.90;67.40;;;;;;4935701;29;20809;-68
2021/05/31 13:30:16;;;;;;;4.00;3.80;;;22.90;67.80;;;;;;4935391;29;20833;-69
2021/05/31 13:32:51;;;;;;;3.70;3.60;;;22.90;68.10;;;;;;4935661;29;20473;-68
2021/05/31 13:35:18;;;;;;;3.70;3.60;;;23.00;68.00;;;;;;4934430;28;20487;-68
2021/05/31 13:37:45;;;;;;;3.30;3.20;;;23.10;67.00;;;;;;4935721;29;20472;-71
2021/05/31 13:40:12;;;;;;;2.63;2.63;;;23.10;67.80;;;;;;4935161;29;20497;-71
2021/05/31 13:42:49;;;;;;;3.00;2.80;;;23.00;66.90;;;;;;4935254;29;20832;-71
2021/05/31 13:45:17;;;;;;;3.47;3.20;;;23.00;68.40;;;;;;4935147;29;20476;-72
2021/05/31 13:47:43;;;;;;;3.10;3.00;;;23.20;67.40;;;;;;4935127;29;20954;-68
2021/05/31 13:50:10;;;;;;;3.70;3.60;;;23.30;67.30;;;;;;4934625;29;20472;-68
2021/05/31 13:52:36;;;;;;;2.93;2.83;;;23.30;67.50;;;;;;4936270;29;20528;-71
2021/05/31 13:55:04;;;;;;;3.60;3.50;;;22.90;67.50;;;;;;4936681;29;20466;-71
2021/05/31 13:57:31;;;;;;;3.10;3.00;;;22.70;67.70;;;;;;4936858;29;20478;-69
2021/05/31 13:59:57;;;;;;;3.73;3.53;;;22.70;69.60;;;;;;4936334;29;20560;-69
2021/05/31 14:02:25;;;;;;;3.87;3.57;;;22.60;69.40;;;;;;4935656;29;20556;-70
2021/05/31 14:04:51;;;;;;;3.77;3.67;;;22.70;69.60;;;;;;4935048;29;20501;-67
2021/05/31 14:07:17;;;;;;;4.27;3.80;;;22.80;69.70;;;;;;4934966;29;21056;-67
2021/05/31 14:09:43;;;;;;;3.90;3.70;;;22.90;69.50;;;;;;4935260;29;20465;-68
2021/05/31 14:12:10;;;;;;;3.27;3.07;;;23.00;69.90;;;;;;4934984;29;20990;-68
2021/05/31 14:14:36;;;;;;;4.67;3.60;;;23.20;70.00;;;;;;4936354;29;20472;-67
2021/05/31 14:17:03;;;;;;;3.67;3.50;;;23.30;69.00;;;;;;4935008;29;20472;-68
2021/05/31 14:19:30;;;;;;;3.43;3.33;;;23.50;68.10;;;;;;4939212;28;20477;-68
2021/05/31 14:21:56;;;;;;;3.40;3.30;;;23.50;68.60;;;;;;4941113;29;20954;-69
2021/05/31 14:24:23;;;;;;;4.00;3.80;;;23.50;68.30;;;;;;4941137;29;20489;-68
2021/05/31 14:26:50;;;;;;;3.93;3.83;;;23.50;69.70;;;;;;4941025;29;20552;-68
2021/05/31 14:29:16;;;;;;;3.60;3.40;;;23.50;68.80;;;;;;4940922;28;20923;-67
2021/05/31 14:31:42;;;;;;;4.03;3.73;;;23.30;68.60;;;;;;4940669;29;20594;-67
2021/05/31 14:34:08;;;;;;;4.00;3.90;;;23.10;70.10;;;;;;4940418;29;20472;-67
2021/05/31 14:36:36;;;;;;;3.17;3.17;;;23.00;69.60;;;;;;4940443;29;20469;-67
2021/05/31 14:39:02;;;;;;;3.67;3.57;;;23.20;69.70;;;;;;4940974;29;20549;-67
2021/05/31 14:41:28;;;;;;;3.53;3.30;;;23.40;71.20;;;;;;4940977;29;20803;-68
2021/05/31 14:43:55;;;;;;;4.03;3.73;;;23.60;70.20;;;;;;4940396;28;20485;-68
2021/05/31 14:46:21;;;;;;;3.90;3.70;;;23.70;69.90;;;;;;4940765;29;21006;-68
2021/05/31 14:48:47;;;;;;;3.20;3.10;;;23.60;68.60;;;;;;4940876;29;20469;-68
2021/05/31 14:51:14;;;;;;;4.03;3.67;;;23.40;68.40;;;;;;4940694;29;20861;-68
2021/05/31 14:53:44;;;;;;;26.23;5.23;;;23.40;68.80;;;;;;4940886;29;20513;-68
2021/05/31 14:56:11;;;;;;;3.30;3.20;;;23.50;68.50;;;;;;4940841;29;20469;-68
2021/05/31 14:58:38;;;;;;;3.67;3.57;;;23.60;68.00;;;;;;4940722;29;20520;-69
2021/05/31 15:01:05;;;;;;;4.17;3.77;;;23.60;66.30;;;;;;4940657;29;20896;-71
2021/05/31 15:03:32;;;;;;;3.37;3.23;;;23.50;66.70;;;;;;4940513;29;20556;-71
2021/05/31 15:05:58;;;;;;;3.30;3.30;;;23.70;67.00;;;;;;4940530;29;20473;-69
2021/05/31 15:08:25;;;;;;;3.20;3.10;;;23.70;68.00;;;;;;4940653;28;20488;-71
2021/05/31 15:10:52;;;;;;;3.27;3.13;;;23.80;67.60;;;;;;4940856;29;20485;-70
2021/05/31 15:13:19;;;;;;;5.57;3.23;;;23.80;68.90;;;;;;4940157;29;20942;-70
2021/05/31 15:15:45;;;;;;;3.20;3.10;;;23.80;65.90;;;;;;4940777;29;20465;-70
2021/05/31 15:18:12;;;;;;;4.17;3.87;;;23.90;65.50;;;;;;4940668;29;20461;-69
2021/05/31 15:20:39;;;;;;;3.17;2.97;;;23.90;66.90;;;;;;4940043;28;20580;-70
2021/05/31 15:23:05;;;;;;;3.43;3.13;;;23.90;67.10;;;;;;4940826;29;20501;-67
2021/05/31 15:25:32;;;;;;;3.50;3.40;;;23.70;67.30;;;;;;4940376;29;20470;-69
2021/05/31 15:27:59;;;;;;;4.17;3.53;;;23.70;67.70;;;;;;4940613;29;20528;-70
2021/05/31 15:30:25;;;;;;;3.40;3.27;;;23.60;68.00;;;;;;4938221;28;20528;-70
2021/05/31 15:32:51;;;;;;;3.87;3.57;;;23.60;67.60;;;;;;4937631;29;20477;-67
2021/05/31 15:35:19;;;;;;;5.93;3.80;;;23.60;68.00;;;;;;4936333;29;20950;-68
2021/05/31 15:37:45;;;;;;;3.00;2.90;;;23.70;67.00;;;;;;4937532;29;20473;-67
2021/05/31 15:40:14;;;;;;;3.23;3.13;;;23.60;68.20;;;;;;4937213;29;20958;-68
2021/05/31 15:42:40;;;;;;;3.93;3.83;;;23.60;68.60;;;;;;4937352;29;20469;-67
2021/05/31 15:45:10;;;;;;;3.93;3.73;;;23.70;68.80;;;;;;4936904;29;20973;-68
2021/05/31 15:47:36;;;;;;;3.40;3.27;;;23.50;67.50;;;;;;4937283;28;20511;-68
2021/05/31 15:50:03;;;;;;;3.73;3.53;;;23.50;68.40;;;;;;4936325;29;21016;-68
2021/05/31 15:52:29;;;;;;;3.50;3.33;;;23.70;69.90;;;;;;4937153;29;20486;-68
2021/05/31 15:54:56;;;;;;;3.50;3.40;;;23.80;68.50;;;;;;4936844;29;20481;-69
2021/05/31 15:57:22;;;;;;;3.30;3.20;;;23.80;68.70;;;;;;4937162;29;20934;-66
2021/05/31 15:59:48;;;;;;;3.93;3.60;;;23.90;68.20;;;;;;4936952;29;20532;-67
2021/05/31 16:02:16;;;;;;;4.40;4.03;;;24.00;69.90;;;;;;4936491;29;20504;-67
2021/05/31 16:04:43;;;;;;;3.63;3.40;;;23.80;71.00;;;;;;4935911;29;20501;-67
2021/05/31 16:07:10;;;;;;;4.50;4.20;;;23.80;72.00;;;;;;4936752;29;20497;-66
2021/05/31 16:09:36;;;;;;;3.70;3.60;;;23.70;71.70;;;;;;4936343;29;20542;-67
2021/05/31 16:12:02;;;;;;;4.00;3.80;;;23.70;71.20;;;;;;4936217;28;20490;-69
2021/05/31 16:14:28;;;;;;;5.07;4.60;;;23.70;72.40;;;;;;4936449;29;20472;-67
2021/05/31 16:16:55;;;;;;;4.27;4.00;;;23.40;71.80;;;;;;4936620;29;20472;-67
2021/05/31 16:19:23;;;;;;;4.63;4.43;;;23.20;72.50;;;;;;4935885;29;20827;-67
2021/05/31 16:21:49;;;;;;;4.67;4.37;;;23.00;73.50;;;;;;4935502;28;20506;-67
2021/05/31 16:24:17;;;;;;;4.90;4.60;;;23.10;72.90;;;;;;4935843;29;20496;-67
2021/05/31 16:26:44;;;;;;;4.37;4.17;;;23.00;73.00;;;;;;4936427;29;20469;-67
2021/05/31 16:29:10;;;;;;;4.57;4.27;;;23.00;73.50;;;;;;4936515;29;20525;-67
2021/05/31 16:31:36;;;;;;;4.63;4.43;;;23.10;73.60;;;;;;4935876;29;20592;-69
2021/05/31 16:34:02;;;;;;;4.73;4.43;;;23.20;73.80;;;;;;4935340;29;20483;-69
2021/05/31 16:36:30;;;;;;;4.37;4.27;;;23.10;72.80;;;;;;4935293;29;20534;-68
2021/05/31 16:38:56;;;;;;;3.93;3.83;;;22.90;73.10;;;;;;4936323;29;20548;-69
2021/05/31 16:41:22;;;;;;;5.60;4.43;;;22.90;73.10;;;;;;4935610;29;20496;-67
2021/05/31 16:43:48;;;;;;;3.80;3.70;;;22.90;71.10;;;;;;4935054;29;20548;-66
2021/05/31 16:46:15;;;;;;;4.37;4.27;;;22.90;71.80;;;;;;4935855;28;20891;-66
2021/05/31 16:48:41;;;;;;;4.87;4.47;;;22.90;71.30;;;;;;4935865;29;20466;-66
2021/05/31 16:51:15;;;;;;;3.60;3.40;;;23.00;69.90;;;;;;4935371;29;20902;-67
2021/05/31 16:53:43;;;;;;;6.00;4.00;;;22.90;68.40;;;;;;4935895;29;20915;-66
2021/05/31 16:56:09;;;;;;;4.27;4.00;;;22.80;71.60;;;;;;4936122;29;20475;-67
2021/05/31 16:58:35;;;;;;;6.10;5.70;;;22.70;72.50;;;;;;4936803;29;20466;-67